Saturday, December 15, 2018, 1:18 PM EST
Back to Local

KSYR, Syracuse Hancock International Airport

Location: Syracuse, NY, United States Lat: 43.117
Local Time: 1:18 PM EST (18:18 GMT) Lon: -76.1
Time Zone: US/Eastern Elev: 410 ft

Show me the last for .
Show Decoded

2018-12-15 12:54 METAR KSYR 151754Z 00000KT 10SM BKN017 OVC200 04/01 A3021 RMK AO2 SLP231
                 T00390006 10044 20028 55010 $ =
2018-12-15 12:33 METAR KSYR 151733Z 01005KT 10SM BKN018 OVC200 04/01 A3021 RMK AO2 T00440006 $ =
2018-12-15 11:54 METAR KSYR 151654Z 00000KT 10SM SCT015 OVC200 04/01 A3021 RMK AO2 SLP229
                 T00440006 $ =
2018-12-15 10:54 METAR KSYR 151554Z 32005KT 8SM SCT010 OVC210 04/01 A3023 RMK AO2 SLP235
                 T00390011 $ =
2018-12-15 10:48 METAR KSYR 151548Z 34005KT 7SM FEW006 SCT010 OVC210 04/01 A3023 RMK AO2 $ =
2018-12-15 10:30 METAR KSYR 151530Z 35008KT 7SM FEW006 BKN010 OVC015 04/02 A3023 RMK AO2
                 T00390017 $ =
2018-12-15 10:05 METAR KSYR 151505Z 34008KT 5SM BR BKN006 BKN010 OVC015 04/02 A3024 RMK AO2
                 T00390022 $ =
2018-12-15 09:58 METAR KSYR 151458Z COR 33008KT 4SM BR BKN006 OVC012 04/02 A3024 =
2018-12-15 09:54 METAR KSYR 151454Z 33007KT 4SM BR SCT006 BKN010 04/02 A3024 RMK AO2 SLP241
                 T00390022 51005 $ =
2018-12-15 09:39 METAR KSYR 151439Z 34006KT 3SM BR BKN006 OVC012 04/03 A3024 RMK AO2 T00390028 $
                 =
2018-12-15 09:09 METAR KSYR 151409Z 34004KT 2 1/2SM BR BKN009 OVC014 04/03 A3024 RMK AO2
                 T00390033 $ =
2018-12-15 08:54 METAR KSYR 151354Z 31003KT 3SM BR BKN010 OVC019 04/03 A3024 RMK AO2 SLP239
                 T00390028 $ =
2018-12-15 08:13 METAR KSYR 151313Z 33004KT 3SM BR BKN010 OVC018 04/03 A3024 RMK AO2 T00390028 $
                 =
2018-12-15 07:54 METAR KSYR 151254Z 31004KT 6SM BR BKN008 OVC017 03/02 A3025 RMK AO2 SLP242
                 T00330022 $ =
2018-12-15 07:08 METAR KSYR 151208Z 00000KT 8SM BKN009 OVC019 03/02 A3023 RMK AO2 T00280017 $ =
2018-12-15 06:54 METAR KSYR 151154Z 00000KT 9SM BKN020 OVC025 03/02 A3023 RMK AO2 SLP235
                 T00280017 10050 20017 51025 $ =
2018-12-15 05:54 METAR KSYR 151054Z 00000KT 9SM OVC024 03/02 A3021 RMK AO2 SLP231 T00280017 $ =
2018-12-15 05:01 METAR KSYR 151001Z 35003KT 9SM BKN026 OVC220 02/01 A3019 RMK AO2 T00220011 $ =
2018-12-15 04:54 METAR KSYR 150954Z 34005KT 10SM SCT026 OVC220 02/01 A3019 RMK AO2 SLP222
                 T00220011 $ =
2018-12-15 03:54 METAR KSYR 150854Z 33004KT 10SM FEW040 OVC220 03/02 A3015 RMK AO2 SLP210
                 T00280017 56004 $ =
2018-12-15 02:54 METAR KSYR 150754Z 19005KT 10SM FEW040 OVC230 02/01 A3016 RMK AO2 SLP212
                 T00220011 $ =
2018-12-15 01:54 METAR KSYR 150654Z 00000KT 10SM FEW040 OVC230 03/02 A3016 RMK AO2 SLP211
                 T00330017 $ =
2018-12-15 00:54 METAR KSYR 150554Z 00000KT 10SM BKN040 OVC240 04/02 A3017 RMK AO2 SLP214
                 T00390022 10078 20033 55002 $ =
2018-12-14 23:54 METAR KSYR 150454Z 24003KT 10SM SCT085 OVC240 06/03 A3015 RMK AO2 SLP209
                 T00610028 400831022 $ =
2018-12-14 22:54 METAR KSYR 150354Z 00000KT 10SM BKN085 05/02 A3016 RMK AO2 SLP211 T00500022 $ =
2018-12-14 21:54 METAR KSYR 150254Z 00000KT 10SM OVC085 06/02 A3017 RMK AO2 SLP217 T00560022
                 58002 $ =
2018-12-14 20:54 METAR KSYR 150154Z 17004KT 10SM OVC085 07/02 A3018 RMK AO2 SLP220 T00670022 $ =
2018-12-14 19:54 METAR KSYR 150054Z 00000KT 10SM OVC090 07/02 A3018 RMK AO2 SLP220 T00670022 $ =
2018-12-14 18:54 METAR KSYR 142354Z 18010KT 10SM OVC110 08/02 A3018 RMK AO2 SLP218 T00780022
                 10083 20067 58005 $ =
2018-12-14 17:54 METAR KSYR 142254Z 19012KT 10SM BKN120 08/02 A3019 RMK AO2 SLP223 T00780022 $ =
2018-12-14 16:54 METAR KSYR 142154Z 19007KT 10SM FEW070 SCT100 08/02 A3020 RMK AO2 SLP226
                 T00780022 $ =
2018-12-14 15:54 METAR KSYR 142054Z 17009KT 10SM FEW070 OVC100 08/03 A3019 RMK AO2 SLP224
                 T00780028 56016 $ =
2018-12-14 14:54 METAR KSYR 141954Z 16008KT 10SM OVC055 07/03 A3020 RMK AO2 SLP227 T00720028 $ =
2018-12-14 13:54 METAR KSYR 141854Z 18008KT 10SM OVC049 08/03 A3022 RMK AO2 SLP233 T00780028 $ =

Support USWX by starting your Amazon purchase here.